sensor_id;sensor_type;location;lat;lon;timestamp;pressure;altitude;pressure_sealevel;temperature;humidity
69245;BME280;56357;52.304;4.870;2022-12-07T00:03:43;102067.72;;;15.88;53.84
69245;BME280;56357;52.304;4.870;2022-12-07T00:06:12;102070.78;;;15.87;54.16
69245;BME280;56357;52.304;4.870;2022-12-07T00:08:39;102075.94;;;15.83;53.62
69245;BME280;56357;52.304;4.870;2022-12-07T00:11:10;102073.56;;;15.87;53.97
69245;BME280;56357;52.304;4.870;2022-12-07T00:13:37;102071.09;;;15.79;53.76
69245;BME280;56357;52.304;4.870;2022-12-07T00:16:12;102087.63;;;15.80;53.80
69245;BME280;56357;52.304;4.870;2022-12-07T00:18:39;102080.78;;;15.76;53.84
69245;BME280;56357;52.304;4.870;2022-12-07T00:21:09;102072.16;;;15.78;53.98
69245;BME280;56357;52.304;4.870;2022-12-07T00:23:37;102080.78;;;15.76;53.69
69245;BME280;56357;52.304;4.870;2022-12-07T00:26:08;102073.88;;;15.79;53.72
69245;BME280;56357;52.304;4.870;2022-12-07T00:28:35;102067.31;;;15.73;53.71
69245;BME280;56357;52.304;4.870;2022-12-07T00:31:07;102067.75;;;15.70;53.85
69245;BME280;56357;52.304;4.870;2022-12-07T00:33:34;102058.75;;;15.68;53.77
69245;BME280;56357;52.304;4.870;2022-12-07T00:36:03;102061.56;;;15.68;53.73
69245;BME280;56357;52.304;4.870;2022-12-07T00:38:33;102068.50;;;15.66;53.89
69245;BME280;56357;52.304;4.870;2022-12-07T00:41:05;102048.31;;;15.64;53.85
69245;BME280;56357;52.304;4.870;2022-12-07T00:43:33;102055.22;;;15.61;53.82
69245;BME280;56357;52.304;4.870;2022-12-07T00:45:59;102043.44;;;15.59;53.84
69245;BME280;56357;52.304;4.870;2022-12-07T00:48:26;102044.75;;;15.56;54.01
69245;BME280;56357;52.304;4.870;2022-12-07T00:50:52;102042.81;;;15.57;53.95
69245;BME280;56357;52.304;4.870;2022-12-07T00:53:19;102045.84;;;15.55;54.04
69245;BME280;56357;52.304;4.870;2022-12-07T00:55:46;102049.47;;;15.56;53.72
69245;BME280;56357;52.304;4.870;2022-12-07T00:58:13;102050.44;;;15.50;53.79
69245;BME280;56357;52.304;4.870;2022-12-07T01:00:41;102035.94;;;15.41;53.95
69245;BME280;56357;52.304;4.870;2022-12-07T01:03:10;102052.38;;;15.49;53.74
69245;BME280;56357;52.304;4.870;2022-12-07T01:05:37;102045.06;;;15.48;53.70
69245;BME280;56357;52.304;4.870;2022-12-07T01:08:04;102051.50;;;15.49;53.65
69245;BME280;56357;52.304;4.870;2022-12-07T01:10:31;102047.72;;;15.43;54.00
69245;BME280;56357;52.304;4.870;2022-12-07T01:12:58;102054.41;;;15.42;53.95
69245;BME280;56357;52.304;4.870;2022-12-07T01:15:25;102064.47;;;15.43;54.02
69245;BME280;56357;52.304;4.870;2022-12-07T01:17:52;102064.47;;;15.43;53.64
69245;BME280;56357;52.304;4.870;2022-12-07T01:20:19;102069.44;;;15.41;53.74
69245;BME280;56357;52.304;4.870;2022-12-07T01:22:46;102070.91;;;15.44;53.58
69245;BME280;56357;52.304;4.870;2022-12-07T01:25:12;102077.38;;;15.38;53.69
69245;BME280;56357;52.304;4.870;2022-12-07T01:27:38;102078.47;;;15.37;53.70
69245;BME280;56357;52.304;4.870;2022-12-07T01:30:06;102078.94;;;15.34;53.86
69245;BME280;56357;52.304;4.870;2022-12-07T01:32:33;102061.09;;;15.35;53.81
69245;BME280;56357;52.304;4.870;2022-12-07T01:35:00;102056.84;;;15.32;54.22
69245;BME280;56357;52.304;4.870;2022-12-07T01:37:26;102065.84;;;15.34;53.96
69245;BME280;56357;52.304;4.870;2022-12-07T01:39:53;102064.59;;;15.30;53.87
69245;BME280;56357;52.304;4.870;2022-12-07T01:42:19;102060.09;;;15.29;53.98
69245;BME280;56357;52.304;4.870;2022-12-07T01:47:53;102059.25;;;15.29;54.23
69245;BME280;56357;52.304;4.870;2022-12-07T01:50:25;102053.69;;;15.29;54.29
69245;BME280;56357;52.304;4.870;2022-12-07T01:52:54;102056.69;;;15.27;54.00
69245;BME280;56357;52.304;4.870;2022-12-07T01:55:23;102048.53;;;15.26;54.25
69245;BME280;56357;52.304;4.870;2022-12-07T01:57:52;102055.22;;;15.25;54.33
69245;BME280;56357;52.304;4.870;2022-12-07T02:00:19;102046.00;;;15.24;54.04
69245;BME280;56357;52.304;4.870;2022-12-07T02:02:56;102037.38;;;15.26;54.02
69245;BME280;56357;52.304;4.870;2022-12-07T02:05:25;102029.25;;;15.24;54.12
69245;BME280;56357;52.304;4.870;2022-12-07T02:07:55;102031.66;;;15.21;53.84
69245;BME280;56357;52.304;4.870;2022-12-07T02:10:28;102038.09;;;15.21;54.05
69245;BME280;56357;52.304;4.870;2022-12-07T02:13:40;102044.59;;;15.15;54.07
69245;BME280;56357;52.304;4.870;2022-12-07T02:16:03;102042.03;;;15.14;53.96
69245;BME280;56357;52.304;4.870;2022-12-07T02:27:07;102038.03;;;15.10;54.34
69245;BME280;56357;52.304;4.870;2022-12-07T02:29:47;102030.97;;;15.07;54.32
69245;BME280;56357;52.304;4.870;2022-12-07T02:32:21;102032.88;;;15.07;54.38
69245;BME280;56357;52.304;4.870;2022-12-07T02:34:56;102020.66;;;15.08;54.32
69245;BME280;56357;52.304;4.870;2022-12-07T02:37:36;102029.25;;;15.06;54.18
69245;BME280;56357;52.304;4.870;2022-12-07T02:40:13;102027.53;;;15.05;54.12
69245;BME280;56357;52.304;4.870;2022-12-07T02:42:47;102018.19;;;15.00;54.31
69245;BME280;56357;52.304;4.870;2022-12-07T02:45:17;102026.94;;;15.03;54.29
69245;BME280;56357;52.304;4.870;2022-12-07T02:47:45;102014.28;;;15.01;54.11
69245;BME280;56357;52.304;4.870;2022-12-07T02:50:18;102016.25;;;15.00;54.08
69245;BME280;56357;52.304;4.870;2022-12-07T02:52:44;102007.25;;;14.98;53.84
69245;BME280;56357;52.304;4.870;2022-12-07T02:55:11;102013.66;;;14.99;54.03
69245;BME280;56357;52.304;4.870;2022-12-07T02:57:52;102016.44;;;14.99;53.97
69245;BME280;56357;52.304;4.870;2022-12-07T03:00:20;102019.25;;;14.99;54.02
69245;BME280;56357;52.304;4.870;2022-12-07T03:02:58;102024.19;;;14.97;54.36
69245;BME280;56357;52.304;4.870;2022-12-07T03:16:07;102032.34;;;14.98;53.91
69245;BME280;56357;52.304;4.870;2022-12-07T03:18:52;102032.97;;;15.00;54.09
69245;BME280;56357;52.304;4.870;2022-12-07T03:21:35;102028.72;;;14.98;54.04
69245;BME280;56357;52.304;4.870;2022-12-07T03:24:10;102020.97;;;15.00;54.32
69245;BME280;56357;52.304;4.870;2022-12-07T03:26:41;102022.03;;;14.99;54.16
69245;BME280;56357;52.304;4.870;2022-12-07T03:29:14;102016.44;;;14.99;54.28
69245;BME280;56357;52.304;4.870;2022-12-07T03:31:46;102010.19;;;15.03;54.12
69245;BME280;56357;52.304;4.870;2022-12-07T03:34:21;102019.41;;;15.04;54.21
69245;BME280;56357;52.304;4.870;2022-12-07T03:37:12;102012.84;;;14.98;54.22
69245;BME280;56357;52.304;4.870;2022-12-07T03:41:03;102007.16;;;15.05;54.27
69245;BME280;56357;52.304;4.870;2022-12-07T03:43:03;102002.19;;;15.07;54.33
69245;BME280;56357;52.304;4.870;2022-12-07T03:45:42;101994.69;;;15.07;54.00
69245;BME280;56357;52.304;4.870;2022-12-07T03:48:31;102005.59;;;15.09;54.33
69245;BME280;56357;52.304;4.870;2022-12-07T03:53:51;101998.78;;;15.05;54.46
69245;BME280;56357;52.304;4.870;2022-12-07T03:56:19;101997.47;;;15.07;54.17
69245;BME280;56357;52.304;4.870;2022-12-07T03:58:47;102009.25;;;15.09;54.46
69245;BME280;56357;52.304;4.870;2022-12-07T04:01:14;102014.13;;;15.14;54.06
69245;BME280;56357;52.304;4.870;2022-12-07T04:03:41;102023.59;;;15.13;54.67
69245;BME280;56357;52.304;4.870;2022-12-07T04:06:07;102011.19;;;15.09;54.37
69245;BME280;56357;52.304;4.870;2022-12-07T04:08:33;102001.97;;;15.08;54.32
69245;BME280;56357;52.304;4.870;2022-12-07T04:11:01;101988.63;;;15.10;54.37
69245;BME280;56357;52.304;4.870;2022-12-07T04:13:27;101984.03;;;15.16;53.73
69245;BME280;56357;52.304;4.870;2022-12-07T04:15:54;101985.78;;;15.17;54.42
69245;BME280;56357;52.304;4.870;2022-12-07T04:18:20;101986.38;;;15.19;54.00
69245;BME280;56357;52.304;4.870;2022-12-07T04:20:46;101986.00;;;15.15;54.25
69245;BME280;56357;52.304;4.870;2022-12-07T04:23:13;101987.47;;;15.18;54.36
69245;BME280;56357;52.304;4.870;2022-12-07T04:25:40;101986.16;;;15.20;54.38
69245;BME280;56357;52.304;4.870;2022-12-07T04:28:06;101981.25;;;15.16;54.55
69245;BME280;56357;52.304;4.870;2022-12-07T04:30:33;101980.94;;;15.24;54.44
69245;BME280;56357;52.304;4.870;2022-12-07T04:32:59;101977.47;;;15.28;54.09
69245;BME280;56357;52.304;4.870;2022-12-07T04:35:25;101990.88;;;15.20;54.65
69245;BME280;56357;52.304;4.870;2022-12-07T04:37:52;101990.56;;;15.28;54.05
69245;BME280;56357;52.304;4.870;2022-12-07T04:40:18;101986.53;;;15.24;54.40
69245;BME280;56357;52.304;4.870;2022-12-07T04:42:44;101985.66;;;15.23;54.55
69245;BME280;56357;52.304;4.870;2022-12-07T04:45:11;101981.56;;;15.26;54.17
69245;BME280;56357;52.304;4.870;2022-12-07T04:47:37;101974.06;;;15.26;54.19
69245;BME280;56357;52.304;4.870;2022-12-07T04:50:04;101979.63;;;15.26;54.46
69245;BME280;56357;52.304;4.870;2022-12-07T04:52:31;101985.13;;;15.33;54.03
69245;BME280;56357;52.304;4.870;2022-12-07T04:54:57;101983.41;;;15.32;54.00
69245;BME280;56357;52.304;4.870;2022-12-07T04:57:24;101989.13;;;15.37;54.20
69245;BME280;56357;52.304;4.870;2022-12-07T04:59:50;101991.94;;;15.37;53.69
69245;BME280;56357;52.304;4.870;2022-12-07T05:02:16;101990.72;;;15.33;54.38
69245;BME280;56357;52.304;4.870;2022-12-07T05:04:43;101989.38;;;15.35;54.52
69245;BME280;56357;52.304;4.870;2022-12-07T05:07:09;101988.31;;;15.36;54.40
69245;BME280;56357;52.304;4.870;2022-12-07T05:09:35;101984.41;;;15.37;53.96
69245;BME280;56357;52.304;4.870;2022-12-07T05:12:02;101974.34;;;15.36;54.61
69245;BME280;56357;52.304;4.870;2022-12-07T05:14:28;101974.34;;;15.36;54.65
69245;BME280;56357;52.304;4.870;2022-12-07T05:16:54;101978.16;;;15.42;54.23
69245;BME280;56357;52.304;4.870;2022-12-07T05:19:21;101980.75;;;15.37;54.40
69245;BME280;56357;52.304;4.870;2022-12-07T05:21:47;101988.03;;;15.44;54.24
69245;BME280;56357;52.304;4.870;2022-12-07T05:24:16;101978.78;;;15.44;54.36
69245;BME280;56357;52.304;4.870;2022-12-07T05:26:43;101985.00;;;15.46;54.05
69245;BME280;56357;52.304;4.870;2022-12-07T05:29:13;101985.59;;;15.48;54.31
69245;BME280;56357;52.304;4.870;2022-12-07T05:31:40;101984.25;;;15.50;53.97
69245;BME280;56357;52.304;4.870;2022-12-07T05:34:07;101985.75;;;15.53;53.86
69245;BME280;56357;52.304;4.870;2022-12-07T05:36:33;101989.84;;;15.50;54.75
69245;BME280;56357;52.304;4.870;2022-12-07T05:38:59;101995.22;;;15.52;54.08
69245;BME280;56357;52.304;4.870;2022-12-07T05:41:26;101984.03;;;15.52;54.22
69245;BME280;56357;52.304;4.870;2022-12-07T05:44:10;101985.75;;;15.53;54.25
69245;BME280;56357;52.304;4.870;2022-12-07T05:46:37;101979.09;;;15.54;53.85
69245;BME280;56357;52.304;4.870;2022-12-07T05:49:03;101988.66;;;15.58;53.98
69245;BME280;56357;52.304;4.870;2022-12-07T05:51:30;101981.00;;;15.53;54.71
69245;BME280;56357;52.304;4.870;2022-12-07T05:53:56;101960.53;;;15.60;54.56
69245;BME280;56357;52.304;4.870;2022-12-07T05:56:23;101955.56;;;15.62;54.28
69245;BME280;56357;52.304;4.870;2022-12-07T05:58:49;101953.59;;;15.62;54.21
69245;BME280;56357;52.304;4.870;2022-12-07T06:01:33;101955.31;;;15.63;53.91
69245;BME280;56357;52.304;4.870;2022-12-07T06:04:00;101959.19;;;15.62;53.63
69245;BME280;56357;52.304;4.870;2022-12-07T06:06:26;101967.47;;;15.69;53.97
69245;BME280;56357;52.304;4.870;2022-12-07T06:08:53;101968.16;;;15.64;54.05
69245;BME280;56357;52.304;4.870;2022-12-07T06:11:19;101963.56;;;15.70;54.00
69245;BME280;56357;52.304;4.870;2022-12-07T06:14:03;101972.19;;;15.68;54.33
69245;BME280;56357;52.304;4.870;2022-12-07T06:16:29;101975.59;;;15.70;54.54
69245;BME280;56357;52.304;4.870;2022-12-07T06:18:56;101971.25;;;15.74;54.36
69245;BME280;56357;52.304;4.870;2022-12-07T06:21:22;101987.63;;;15.71;54.18
69245;BME280;56357;52.304;4.870;2022-12-07T06:23:50;101981.81;;;15.72;54.39
69245;BME280;56357;52.304;4.870;2022-12-07T06:26:17;101984.59;;;15.72;54.24
69245;BME280;56357;52.304;4.870;2022-12-07T06:28:43;101980.25;;;15.76;53.99
69245;BME280;56357;52.304;4.870;2022-12-07T06:31:10;101978.56;;;15.75;53.87
69245;BME280;56357;52.304;4.870;2022-12-07T06:33:36;101969.94;;;15.77;54.07
69245;BME280;56357;52.304;4.870;2022-12-07T06:36:03;101980.97;;;15.83;54.00
69245;BME280;56357;52.304;4.870;2022-12-07T06:38:29;101976.75;;;15.81;54.14
69245;BME280;56357;52.304;4.870;2022-12-07T06:40:56;101963.28;;;15.89;54.02
69245;BME280;56357;52.304;4.870;2022-12-07T06:43:22;101962.78;;;15.81;54.15
69245;BME280;56357;52.304;4.870;2022-12-07T06:45:48;101973.09;;;15.80;54.56
69245;BME280;56357;52.304;4.870;2022-12-07T06:48:15;101983.78;;;15.83;54.78
69245;BME280;56357;52.304;4.870;2022-12-07T06:50:45;101972.75;;;15.88;54.53
69245;BME280;56357;52.304;4.870;2022-12-07T06:53:11;101981.97;;;15.89;54.73
69245;BME280;56357;52.304;4.870;2022-12-07T06:55:38;101979.41;;;15.87;54.90
69245;BME280;56357;52.304;4.870;2022-12-07T06:58:04;101975.78;;;15.87;55.01
69245;BME280;56357;52.304;4.870;2022-12-07T07:00:31;101977.47;;;15.88;54.88
69245;BME280;56357;52.304;4.870;2022-12-07T07:03:00;101976.16;;;15.90;55.03
69245;BME280;56357;52.304;4.870;2022-12-07T07:05:27;101975.06;;;15.91;54.73
69245;BME280;56357;52.304;4.870;2022-12-07T07:07:53;101972.84;;;15.82;55.11
69245;BME280;56357;52.304;4.870;2022-12-07T07:10:20;101965.34;;;15.94;55.01
69245;BME280;56357;52.304;4.870;2022-12-07T07:12:46;101963.16;;;15.84;54.59
69245;BME280;56357;52.304;4.870;2022-12-07T07:15:13;101972.50;;;15.90;54.98
69245;BME280;56357;52.304;4.870;2022-12-07T07:17:39;101971.78;;;15.83;54.82
69245;BME280;56357;52.304;4.870;2022-12-07T07:20:06;101973.22;;;15.85;54.58
69245;BME280;56357;52.304;4.870;2022-12-07T07:22:32;101971.97;;;15.81;54.21
69245;BME280;56357;52.304;4.870;2022-12-07T07:24:59;101973.00;;;15.87;54.21
69245;BME280;56357;52.304;4.870;2022-12-07T07:27:26;101973.38;;;15.90;53.71
69245;BME280;56357;52.304;4.870;2022-12-07T07:29:52;101974.69;;;15.88;54.07
69245;BME280;56357;52.304;4.870;2022-12-07T07:32:18;101980.88;;;15.90;53.74
69245;BME280;56357;52.304;4.870;2022-12-07T07:34:46;101978.59;;;15.87;54.39
69245;BME280;56357;52.304;4.870;2022-12-07T07:37:13;101979.28;;;15.82;53.76
69245;BME280;56357;52.304;4.870;2022-12-07T07:39:39;101977.34;;;15.83;54.26
69245;BME280;56357;52.304;4.870;2022-12-07T07:42:06;101966.19;;;15.83;54.08
69245;BME280;56357;52.304;4.870;2022-12-07T07:44:34;101978.59;;;15.87;54.40
69245;BME280;56357;52.304;4.870;2022-12-07T07:47:01;102002.88;;;15.86;54.76
69245;BME280;56357;52.304;4.870;2022-12-07T07:49:27;102004.09;;;15.90;54.74
69245;BME280;56357;52.304;4.870;2022-12-07T07:51:53;102002.38;;;15.89;54.12
69245;BME280;56357;52.304;4.870;2022-12-07T07:54:20;102004.72;;;15.92;54.62
69245;BME280;56357;52.304;4.870;2022-12-07T07:56:46;101987.09;;;15.92;54.93
69245;BME280;56357;52.304;4.870;2022-12-07T07:59:14;101985.63;;;15.89;54.93
69245;BME280;56357;52.304;4.870;2022-12-07T08:01:41;101985.63;;;15.89;55.13
69245;BME280;56357;52.304;4.870;2022-12-07T08:04:07;101990.88;;;15.97;54.94
69245;BME280;56357;52.304;4.870;2022-12-07T08:06:34;101985.16;;;15.92;55.02
69245;BME280;56357;52.304;4.870;2022-12-07T08:09:01;101979.56;;;15.92;55.06
69245;BME280;56357;52.304;4.870;2022-12-07T08:11:27;101984.38;;;15.85;54.88
69245;BME280;56357;52.304;4.870;2022-12-07T08:13:53;101991.81;;;15.91;55.05
69245;BME280;56357;52.304;4.870;2022-12-07T08:16:20;101999.22;;;15.86;55.08
69245;BME280;56357;52.304;4.870;2022-12-07T08:18:46;102003.00;;;15.91;55.11
69245;BME280;56357;52.304;4.870;2022-12-07T08:21:14;102000.94;;;15.87;55.61
69245;BME280;56357;52.304;4.870;2022-12-07T08:23:41;102008.13;;;15.94;54.35
69245;BME280;56357;52.304;4.870;2022-12-07T08:26:11;102004.94;;;15.91;54.70
69245;BME280;56357;52.304;4.870;2022-12-07T08:28:38;102009.06;;;15.88;54.73
69245;BME280;56357;52.304;4.870;2022-12-07T08:31:15;102006.41;;;15.93;54.31
69245;BME280;56357;52.304;4.870;2022-12-07T08:33:42;101995.59;;;15.97;54.57
69245;BME280;56357;52.304;4.870;2022-12-07T08:36:13;101993.66;;;15.97;54.23
69245;BME280;56357;52.304;4.870;2022-12-07T08:38:41;102002.16;;;16.02;54.28
69245;BME280;56357;52.304;4.870;2022-12-07T08:41:08;102003.16;;;15.96;54.66
69245;BME280;56357;52.304;4.870;2022-12-07T08:43:35;102009.81;;;15.95;54.26
69245;BME280;56357;52.304;4.870;2022-12-07T08:46:09;102015.03;;;15.92;54.33
69245;BME280;56357;52.304;4.870;2022-12-07T08:51:36;101998.59;;;15.84;54.61
69245;BME280;56357;52.304;4.870;2022-12-07T08:54:06;101986.56;;;15.83;54.34
69245;BME280;56357;52.304;4.870;2022-12-07T08:56:34;101973.22;;;15.85;54.19
69245;BME280;56357;52.304;4.870;2022-12-07T08:59:01;101990.34;;;15.89;53.85
69245;BME280;56357;52.304;4.870;2022-12-07T09:01:28;101993.53;;;15.92;54.00
69245;BME280;56357;52.304;4.870;2022-12-07T09:03:54;101994.50;;;15.86;54.43
69245;BME280;56357;52.304;4.870;2022-12-07T09:06:21;101997.66;;;15.90;53.89
69245;BME280;56357;52.304;4.870;2022-12-07T09:08:50;101998.97;;;15.87;54.38
69245;BME280;56357;52.304;4.870;2022-12-07T09:11:17;101997.75;;;15.83;54.99
69245;BME280;56357;52.304;4.870;2022-12-07T09:13:44;102001.50;;;15.89;54.57
69245;BME280;56357;52.304;4.870;2022-12-07T09:16:10;101997.03;;;15.88;54.26
69245;BME280;56357;52.304;4.870;2022-12-07T09:18:38;101984.75;;;15.89;54.65
69245;BME280;56357;52.304;4.870;2022-12-07T09:21:04;101989.50;;;15.88;54.28
69245;BME280;56357;52.304;4.870;2022-12-07T09:23:31;101992.44;;;15.93;54.21
69245;BME280;56357;52.304;4.870;2022-12-07T09:26:01;101986.84;;;15.93;54.04
69245;BME280;56357;52.304;4.870;2022-12-07T09:28:28;101995.59;;;15.97;54.02
69245;BME280;56357;52.304;4.870;2022-12-07T09:30:56;101988.56;;;15.94;53.65
69245;BME280;56357;52.304;4.870;2022-12-07T09:33:22;101984.06;;;15.93;53.82
69245;BME280;56357;52.304;4.870;2022-12-07T09:35:50;101993.91;;;15.96;53.95
69245;BME280;56357;52.304;4.870;2022-12-07T09:38:18;101986.38;;;15.96;54.05
69245;BME280;56357;52.304;4.870;2022-12-07T09:40:45;101988.97;;;16.09;54.29
69245;BME280;56357;52.304;4.870;2022-12-07T09:43:17;101983.63;;;16.08;53.75
69245;BME280;56357;52.304;4.870;2022-12-07T09:45:45;101979.09;;;16.07;54.18
69245;BME280;56357;52.304;4.870;2022-12-07T09:48:22;101985.22;;;16.15;54.13
69245;BME280;56357;52.304;4.870;2022-12-07T09:50:49;101983.13;;;16.11;54.21
69245;BME280;56357;52.304;4.870;2022-12-07T09:53:25;101983.97;;;16.11;54.01
69245;BME280;56357;52.304;4.870;2022-12-07T09:55:53;101978.06;;;16.19;53.57
69245;BME280;56357;52.304;4.870;2022-12-07T09:58:23;101978.16;;;16.24;53.73
69245;BME280;56357;52.304;4.870;2022-12-07T10:00:54;101978.78;;;16.26;54.03
69245;BME280;56357;52.304;4.870;2022-12-07T10:03:21;101979.84;;;16.25;54.09
69245;BME280;56357;52.304;4.870;2022-12-07T10:05:50;101981.69;;;16.31;53.72
69245;BME280;56357;52.304;4.870;2022-12-07T10:08:17;101989.72;;;16.28;53.94
69245;BME280;56357;52.304;4.870;2022-12-07T10:10:45;101999.31;;;16.20;54.30
69245;BME280;56357;52.304;4.870;2022-12-07T10:13:14;101993.97;;;16.30;53.85
69245;BME280;56357;52.304;4.870;2022-12-07T10:15:57;101998.59;;;16.25;54.17
69245;BME280;56357;52.304;4.870;2022-12-07T10:18:36;101978.78;;;16.26;53.71
69245;BME280;56357;52.304;4.870;2022-12-07T10:24:02;101971.59;;;16.30;54.07
69245;BME280;56357;52.304;4.870;2022-12-07T10:26:38;101971.00;;;16.28;53.90
69245;BME280;56357;52.304;4.870;2022-12-07T10:29:21;101965.78;;;16.32;54.15
69245;BME280;56357;52.304;4.870;2022-12-07T10:31:54;101962.00;;;16.26;54.06
69245;BME280;56357;52.304;4.870;2022-12-07T10:34:26;101955.44;;;16.32;53.84
69245;BME280;56357;52.304;4.870;2022-12-07T10:37:07;101957.13;;;16.33;53.97
69245;BME280;56357;52.304;4.870;2022-12-07T10:40:00;101959.94;;;16.45;53.69
69245;BME280;56357;52.304;4.870;2022-12-07T10:42:31;101945.69;;;16.46;53.93
69245;BME280;56357;52.304;4.870;2022-12-07T10:45:15;101949.50;;;16.52;53.66
69245;BME280;56357;52.304;4.870;2022-12-07T10:58:46;101939.50;;;16.44;54.19
69245;BME280;56357;52.304;4.870;2022-12-07T11:09:30;101924.47;;;16.69;53.77
69245;BME280;56357;52.304;4.870;2022-12-07T11:17:42;101925.50;;;16.79;53.53
69245;BME280;56357;52.304;4.870;2022-12-07T11:20:39;101908.97;;;16.89;53.30
69245;BME280;56357;52.304;4.870;2022-12-07T11:23:26;101901.69;;;16.88;53.53
69245;BME280;56357;52.304;4.870;2022-12-07T11:34:10;101885.75;;;16.77;53.06
69245;BME280;56357;52.304;4.870;2022-12-07T11:36:55;101887.56;;;16.83;53.04
69245;BME280;56357;52.304;4.870;2022-12-07T11:39:28;101889.91;;;16.75;53.46
69245;BME280;56357;52.304;4.870;2022-12-07T11:42:15;101888.28;;;16.90;52.93
69245;BME280;56357;52.304;4.870;2022-12-07T11:50:07;101884.34;;;17.03;52.36
69245;BME280;56357;52.304;4.870;2022-12-07T11:52:56;101873.75;;;17.05;52.42
69245;BME280;56357;52.304;4.870;2022-12-07T11:55:38;101870.69;;;17.06;52.26
69245;BME280;56357;52.304;4.870;2022-12-07T12:00:51;101871.84;;;16.94;53.07
69245;BME280;56357;52.304;4.870;2022-12-07T12:03:30;101876.41;;;17.11;52.61
69245;BME280;56357;52.304;4.870;2022-12-07T12:06:00;101867.28;;;17.04;52.71
69245;BME280;56357;52.304;4.870;2022-12-07T12:08:30;101867.50;;;17.14;52.83
69245;BME280;56357;52.304;4.870;2022-12-07T12:17:04;101863.44;;;17.22;53.01
69245;BME280;56357;52.304;4.870;2022-12-07T12:19:41;101856.25;;;17.26;53.24
69245;BME280;56357;52.304;4.870;2022-12-07T12:22:19;101852.59;;;17.25;52.97
69245;BME280;56357;52.304;4.870;2022-12-07T12:24:52;101846.69;;;17.38;52.45
69245;BME280;56357;52.304;4.870;2022-12-07T12:27:27;101844.13;;;17.37;52.79
69245;BME280;56357;52.304;4.870;2022-12-07T12:29:59;101847.78;;;17.37;52.87
69245;BME280;56357;52.304;4.870;2022-12-07T12:32:42;101844.47;;;17.40;53.03
69245;BME280;56357;52.304;4.870;2022-12-07T12:38:28;101841.44;;;17.42;52.55
69245;BME280;56357;52.304;4.870;2022-12-07T12:40:56;101849.06;;;17.47;52.14
69245;BME280;56357;52.304;4.870;2022-12-07T12:43:42;101838.28;;;17.38;52.66
69245;BME280;56357;52.304;4.870;2022-12-07T12:51:50;101847.16;;;17.19;52.61
69245;BME280;56357;52.304;4.870;2022-12-07T12:59:32;101831.13;;;17.31;51.92
69245;BME280;56357;52.304;4.870;2022-12-07T13:02:28;101823.78;;;17.25;52.44
69245;BME280;56357;52.304;4.870;2022-12-07T13:05:03;101823.19;;;17.23;52.95
69245;BME280;56357;52.304;4.870;2022-12-07T13:10:24;101815.38;;;17.25;52.37
69245;BME280;56357;52.304;4.870;2022-12-07T13:13:05;101808.84;;;17.36;52.44
69245;BME280;56357;52.304;4.870;2022-12-07T13:23:38;101792.88;;;17.20;53.75
69245;BME280;56357;52.304;4.870;2022-12-07T13:26:19;101787.00;;;17.21;53.24
69245;BME280;56357;52.304;4.870;2022-12-07T13:28:51;101786.25;;;17.26;53.60
69245;BME280;56357;52.304;4.870;2022-12-07T13:33:47;101778.53;;;17.33;53.23
69245;BME280;56357;52.304;4.870;2022-12-07T13:36:25;101781.34;;;17.33;53.14
69245;BME280;56357;52.304;4.870;2022-12-07T13:39:11;101769.72;;;17.24;53.23
69245;BME280;56357;52.304;4.870;2022-12-07T13:41:43;101762.19;;;17.25;53.42
69245;BME280;56357;52.304;4.870;2022-12-07T13:44:17;101771.84;;;17.34;53.52
69245;BME280;56357;52.304;4.870;2022-12-07T13:49:38;101762.19;;;17.58;53.67
69245;BME280;56357;52.304;4.870;2022-12-07T13:52:42;101758.13;;;17.66;53.21
69245;BME280;56357;52.304;4.870;2022-12-07T13:55:15;101759.91;;;17.72;53.38
69245;BME280;56357;52.304;4.870;2022-12-07T13:57:44;101752.00;;;17.85;52.93
69245;BME280;56357;52.304;4.870;2022-12-07T14:00:19;101750.31;;;17.84;52.79
69245;BME280;56357;52.304;4.870;2022-12-07T14:05:30;101738.41;;;18.37;51.28
69245;BME280;56357;52.304;4.870;2022-12-07T14:10:39;101736.84;;;18.46;50.96
69245;BME280;56357;52.304;4.870;2022-12-07T14:13:38;101730.88;;;18.59;50.79
69245;BME280;56357;52.304;4.870;2022-12-07T14:18:53;101738.88;;;18.72;50.45
69245;BME280;56357;52.304;4.870;2022-12-07T14:21:22;101739.34;;;18.91;50.19
69245;BME280;56357;52.304;4.870;2022-12-07T14:24:14;101744.91;;;18.86;50.05
69245;BME280;56357;52.304;4.870;2022-12-07T14:26:43;101735.09;;;18.88;49.98
69245;BME280;56357;52.304;4.870;2022-12-07T14:31:49;101732.25;;;18.83;50.14
69245;BME280;56357;52.304;4.870;2022-12-07T14:34:15;101733.47;;;18.92;49.74
69245;BME280;56357;52.304;4.870;2022-12-07T14:36:42;101723.22;;;19.08;49.64
69245;BME280;56357;52.304;4.870;2022-12-07T14:39:08;101719.84;;;19.06;49.32
69245;BME280;56357;52.304;4.870;2022-12-07T14:41:34;101719.31;;;19.09;49.33
69245;BME280;56357;52.304;4.870;2022-12-07T14:44:27;101719.50;;;18.97;49.54
69245;BME280;56357;52.304;4.870;2022-12-07T14:46:53;101721.56;;;19.07;49.34
69245;BME280;56357;52.304;4.870;2022-12-07T14:49:20;101724.53;;;18.95;49.75
69245;BME280;56357;52.304;4.870;2022-12-07T14:51:47;101724.28;;;19.02;49.65
69245;BME280;56357;52.304;4.870;2022-12-07T14:54:17;101723.88;;;19.15;49.38
69245;BME280;56357;52.304;4.870;2022-12-07T14:56:45;101722.34;;;19.02;49.90
69245;BME280;56357;52.304;4.870;2022-12-07T14:59:15;101718.25;;;19.15;49.86
69245;BME280;56357;52.304;4.870;2022-12-07T15:01:42;101720.50;;;19.13;49.75
69245;BME280;56357;52.304;4.870;2022-12-07T15:04:08;101721.56;;;18.54;50.90
69245;BME280;56357;52.304;4.870;2022-12-07T15:06:35;101714.59;;;18.18;51.59
69245;BME280;56357;52.304;4.870;2022-12-07T15:09:02;101720.34;;;18.06;51.71